Time;durP1;ratioP1;P1;durP2;ratioP2;P2;SDS_P1;SDS_P2;PMS_P1;PMS_P2;Temp;Humidity;BMP_temperature;BMP_pressure;BME280_temperature;BME280_humidity;BME280_pressure;Samples;Min_cycle;Max_cycle;Signal;HPM_P1;HPM_P2
2022/01/05 00:00:41;;;;;;;4.2;3.65;;;;;;;5.48;86.94238;93652.44;;;;
2022/01/05 00:01:41;;;;;;;4.2;3.65;;;;;;;5.48;86.94238;93652.44;;;;
2022/01/05 00:02:42;;;;;;;4.2;3.65;;;;;;;5.48;86.94238;93652.44;;;;
2022/01/05 00:03:43;;;;;;;4.2;3.65;;;;;;;5.48;86.94238;93652.44;;;;
2022/01/05 00:04:43;;;;;;;4.2;3.65;;;;;;;5.48;86.94238;93652.44;;;;
2022/01/05 00:05:44;;;;;;;4.2;3.65;;;;;;;5.48;86.94238;93652.44;;;;
2022/01/05 00:06:44;;;;;;;4.2;3.65;;;;;;;5.48;86.94238;93652.44;;;;
2022/01/05 00:07:45;;;;;;;4.050001;3.5;;;;;;;5.37;87.16211;93674.22;;;;
2022/01/05 00:08:45;;;;;;;4.050001;3.5;;;;;;;5.37;87.16211;93674.22;;;;
2022/01/05 00:09:46;;;;;;;4.050001;3.5;;;;;;;5.37;87.16211;93674.22;;;;
2022/01/05 00:10:46;;;;;;;4.050001;3.5;;;;;;;5.37;87.16211;93674.22;;;;
2022/01/05 00:11:47;;;;;;;4.050001;3.5;;;;;;;5.37;87.16211;93674.22;;;;
2022/01/05 00:12:47;;;;;;;4.050001;3.5;;;;;;;5.37;87.16211;93674.22;;;;
2022/01/05 00:13:48;;;;;;;4.050001;3.5;;;;;;;5.37;87.16211;93674.22;;;;
2022/01/05 00:14:48;;;;;;;4.050001;3.5;;;;;;;5.37;87.16211;93674.22;;;;
2022/01/05 00:15:49;;;;;;;4.050001;3.5;;;;;;;5.37;87.16211;93674.22;;;;
2022/01/05 00:16:49;;;;;;;4.050001;3.5;;;;;;;5.37;87.16211;93674.22;;;;
2022/01/05 00:17:50;;;;;;;4.050001;3.5;;;;;;;5.37;87.16211;93674.22;;;;
2022/01/05 00:18:50;;;;;;;3.85;2.85;;;;;;;5.28;87.29004;93700.69;;;;
2022/01/05 00:19:51;;;;;;;3.85;2.85;;;;;;;5.28;87.29004;93700.69;;;;
2022/01/05 00:20:51;;;;;;;3.85;2.85;;;;;;;5.28;87.29004;93700.69;;;;
2022/01/05 00:21:52;;;;;;;3.85;2.85;;;;;;;5.28;87.29004;93700.69;;;;
2022/01/05 00:22:52;;;;;;;3.85;2.85;;;;;;;5.28;87.29004;93700.69;;;;
2022/01/05 00:23:53;;;;;;;3.85;2.85;;;;;;;5.28;87.29004;93700.69;;;;
2022/01/05 00:24:53;;;;;;;3.85;2.85;;;;;;;5.28;87.29004;93700.69;;;;
2022/01/05 00:25:54;;;;;;;3.85;2.85;;;;;;;5.28;87.29004;93700.69;;;;
2022/01/05 00:26:54;;;;;;;3.85;2.85;;;;;;;5.28;87.29004;93700.69;;;;
2022/01/05 00:27:55;;;;;;;3.85;2.85;;;;;;;5.28;87.29004;93700.69;;;;
2022/01/05 00:28:56;;;;;;;3.85;2.85;;;;;;;5.28;87.29004;93700.69;;;;
2022/01/05 00:29:57;;;;;;;1.6;1.5;;;;;;;5.15;87.24414;93710.77;;;;
2022/01/05 00:30:58;;;;;;;1.6;1.5;;;;;;;5.15;87.24414;93710.77;;;;
2022/01/05 00:31:58;;;;;;;1.6;1.5;;;;;;;5.15;87.24414;93710.77;;;;
2022/01/05 00:32:59;;;;;;;1.6;1.5;;;;;;;5.15;87.24414;93710.77;;;;
2022/01/05 00:33:59;;;;;;;1.6;1.5;;;;;;;5.15;87.24414;93710.77;;;;
2022/01/05 00:35:00;;;;;;;1.6;1.5;;;;;;;5.15;87.24414;93710.77;;;;
2022/01/05 00:36:00;;;;;;;1.6;1.5;;;;;;;5.15;87.24414;93710.77;;;;
2022/01/05 00:37:01;;;;;;;1.6;1.5;;;;;;;5.15;87.24414;93710.77;;;;
2022/01/05 00:38:02;;;;;;;1.6;1.5;;;;;;;5.15;87.24414;93710.77;;;;
2022/01/05 00:39:02;;;;;;;1.6;1.5;;;;;;;5.15;87.24414;93710.77;;;;
2022/01/05 00:40:03;;;;;;;1.4;1.2;;;;;;;4.88;87.37891;93734.73;;;;
2022/01/05 00:41:05;;;;;;;1.4;1.2;;;;;;;4.88;87.37891;93734.73;;;;
2022/01/05 00:42:06;;;;;;;1.4;1.2;;;;;;;4.88;87.37891;93734.73;;;;
2022/01/05 00:43:07;;;;;;;1.4;1.2;;;;;;;4.88;87.37891;93734.73;;;;
2022/01/05 00:44:07;;;;;;;1.4;1.2;;;;;;;4.88;87.37891;93734.73;;;;
2022/01/05 00:45:08;;;;;;;1.4;1.2;;;;;;;4.88;87.37891;93734.73;;;;
2022/01/05 00:46:09;;;;;;;1.4;1.2;;;;;;;4.88;87.37891;93734.73;;;;
2022/01/05 00:47:09;;;;;;;1.4;1.2;;;;;;;4.88;87.37891;93734.73;;;;
2022/01/05 00:48:10;;;;;;;1.4;1.2;;;;;;;4.88;87.37891;93734.73;;;;
2022/01/05 00:49:10;;;;;;;1.4;1.2;;;;;;;4.88;87.37891;93734.73;;;;
2022/01/05 00:50:11;;;;;;;1.4;1.2;;;;;;;4.88;87.37891;93734.73;;;;
2022/01/05 00:51:12;;;;;;;0.8;0.8;;;;;;;4.62;88.0293;93765.11;;;;
2022/01/05 00:52:13;;;;;;;0.8;0.8;;;;;;;4.62;88.0293;93765.11;;;;
2022/01/05 00:53:13;;;;;;;0.8;0.8;;;;;;;4.62;88.0293;93765.11;;;;
2022/01/05 00:54:14;;;;;;;0.8;0.8;;;;;;;4.62;88.0293;93765.11;;;;
2022/01/05 00:55:15;;;;;;;0.8;0.8;;;;;;;4.62;88.0293;93765.11;;;;
2022/01/05 00:56:15;;;;;;;0.8;0.8;;;;;;;4.62;88.0293;93765.11;;;;
2022/01/05 00:57:16;;;;;;;0.8;0.8;;;;;;;4.62;88.0293;93765.11;;;;
2022/01/05 00:58:16;;;;;;;0.8;0.8;;;;;;;4.62;88.0293;93765.11;;;;
2022/01/05 00:59:17;;;;;;;0.8;0.8;;;;;;;4.62;88.0293;93765.11;;;;
2022/01/05 01:00:17;;;;;;;0.8;0.8;;;;;;;4.62;88.0293;93765.11;;;;
2022/01/05 01:01:18;;;;;;;0.8;0.8;;;;;;;4.32;88.46387;93756.45;;;;
2022/01/05 01:02:18;;;;;;;0.8;0.8;;;;;;;4.32;88.46387;93756.45;;;;
2022/01/05 01:03:19;;;;;;;0.8;0.8;;;;;;;4.32;88.46387;93756.45;;;;
2022/01/05 01:04:19;;;;;;;0.8;0.8;;;;;;;4.32;88.46387;93756.45;;;;
2022/01/05 01:05:20;;;;;;;0.8;0.8;;;;;;;4.32;88.46387;93756.45;;;;
2022/01/05 01:06:21;;;;;;;0.8;0.8;;;;;;;4.32;88.46387;93756.45;;;;
2022/01/05 01:07:21;;;;;;;0.8;0.8;;;;;;;4.32;88.46387;93756.45;;;;
2022/01/05 01:08:22;;;;;;;0.8;0.8;;;;;;;4.32;88.46387;93756.45;;;;
2022/01/05 01:09:22;;;;;;;0.8;0.8;;;;;;;4.32;88.46387;93756.45;;;;
2022/01/05 01:10:23;;;;;;;0.8;0.8;;;;;;;4.32;88.46387;93756.45;;;;
2022/01/05 01:11:24;;;;;;;0.8;0.8;;;;;;;4.32;88.46387;93756.45;;;;
2022/01/05 01:12:25;;;;;;;0.7;0.7;;;;;;;4.06;89.10352;93765.78;;;;
2022/01/05 01:13:25;;;;;;;0.7;0.7;;;;;;;4.06;89.10352;93765.78;;;;
2022/01/05 01:14:26;;;;;;;0.7;0.7;;;;;;;4.06;89.10352;93765.78;;;;
2022/01/05 01:15:26;;;;;;;0.7;0.7;;;;;;;4.06;89.10352;93765.78;;;;
2022/01/05 01:16:27;;;;;;;0.7;0.7;;;;;;;4.06;89.10352;93765.78;;;;
2022/01/05 01:17:27;;;;;;;0.7;0.7;;;;;;;4.06;89.10352;93765.78;;;;
2022/01/05 01:18:27;;;;;;;0.7;0.7;;;;;;;4.06;89.10352;93765.78;;;;
2022/01/05 01:19:28;;;;;;;0.7;0.7;;;;;;;4.06;89.10352;93765.78;;;;
2022/01/05 01:20:29;;;;;;;0.7;0.7;;;;;;;4.06;89.10352;93765.78;;;;
2022/01/05 01:21:29;;;;;;;0.7;0.7;;;;;;;4.06;89.10352;93765.78;;;;
2022/01/05 01:22:31;;;;;;;0.7;0.7;;;;;;;4.06;89.10352;93765.78;;;;
2022/01/05 01:23:32;;;;;;;0.7;0.7;;;;;;;4.06;89.10352;93765.78;;;;
2022/01/05 01:24:32;;;;;;;0.7;0.7;;;;;;;4.06;89.10352;93765.78;;;;
2022/01/05 01:25:33;;;;;;;0.7;0.7;;;;;;;4.06;89.10352;93765.78;;;;
2022/01/05 01:26:34;;;;;;;0.7;0.7;;;;;;;4.06;89.10352;93765.78;;;;
2022/01/05 01:27:35;;;;;;;0.7;0.7;;;;;;;4.06;89.10352;93765.78;;;;
2022/01/05 01:28:35;;;;;;;0.7;0.7;;;;;;;4.06;89.10352;93765.78;;;;
2022/01/05 01:29:36;;;;;;;0.7;0.7;;;;;;;4.06;89.10352;93765.78;;;;
2022/01/05 01:30:36;;;;;;;0.7;0.7;;;;;;;4.06;89.10352;93765.78;;;;
2022/01/05 01:31:37;;;;;;;0.7;0.7;;;;;;;4.06;89.10352;93765.78;;;;
2022/01/05 01:32:38;;;;;;;0.7;0.7;;;;;;;4.06;89.10352;93765.78;;;;
2022/01/05 01:33:38;;;;;;;0.7;0.7;;;;;;;3.65;90.25488;93800.59;;;;
2022/01/05 01:34:39;;;;;;;0.7;0.7;;;;;;;3.65;90.25488;93800.59;;;;
2022/01/05 01:35:40;;;;;;;0.7;0.7;;;;;;;3.65;90.25488;93800.59;;;;
2022/01/05 01:36:40;;;;;;;0.7;0.7;;;;;;;3.65;90.25488;93800.59;;;;
2022/01/05 01:37:41;;;;;;;0.7;0.7;;;;;;;3.65;90.25488;93800.59;;;;
2022/01/05 01:38:42;;;;;;;0.7;0.7;;;;;;;3.65;90.25488;93800.59;;;;
2022/01/05 01:39:42;;;;;;;0.7;0.7;;;;;;;3.65;90.25488;93800.59;;;;
2022/01/05 01:40:43;;;;;;;0.7;0.7;;;;;;;3.65;90.25488;93800.59;;;;
2022/01/05 01:41:44;;;;;;;0.7;0.7;;;;;;;3.65;90.25488;93800.59;;;;
2022/01/05 01:42:44;;;;;;;0.7;0.7;;;;;;;3.65;90.25488;93800.59;;;;
2022/01/05 01:43:45;;;;;;;1;1;;;;;;;3.55;91.14453;93814.08;;;;
2022/01/05 01:44:46;;;;;;;1;1;;;;;;;3.55;91.14453;93814.08;;;;
2022/01/05 01:45:46;;;;;;;1;1;;;;;;;3.55;91.14453;93814.08;;;;
2022/01/05 01:46:47;;;;;;;1;1;;;;;;;3.55;91.14453;93814.08;;;;
2022/01/05 01:47:47;;;;;;;1;1;;;;;;;3.55;91.14453;93814.08;;;;
2022/01/05 01:48:48;;;;;;;1;1;;;;;;;3.55;91.14453;93814.08;;;;
2022/01/05 01:49:48;;;;;;;1;1;;;;;;;3.55;91.14453;93814.08;;;;
2022/01/05 01:50:49;;;;;;;1;1;;;;;;;3.55;91.14453;93814.08;;;;
2022/01/05 01:51:49;;;;;;;1;1;;;;;;;3.55;91.14453;93814.08;;;;
2022/01/05 01:52:50;;;;;;;1;1;;;;;;;3.55;91.14453;93814.08;;;;
2022/01/05 01:53:50;;;;;;;1;1;;;;;;;3.55;91.14453;93814.08;;;;
2022/01/05 01:54:51;;;;;;;1.15;1;;;;;;;3.47;91.49512;93803.34;;;;
2022/01/05 01:55:52;;;;;;;1.15;1;;;;;;;3.47;91.49512;93803.34;;;;
2022/01/05 01:56:54;;;;;;;1.15;1;;;;;;;3.47;91.49512;93803.34;;;;
2022/01/05 01:57:55;;;;;;;1.15;1;;;;;;;3.47;91.49512;93803.34;;;;
2022/01/05 01:58:56;;;;;;;1.15;1;;;;;;;3.47;91.49512;93803.34;;;;
2022/01/05 01:59:58;;;;;;;1.15;1;;;;;;;3.47;91.49512;93803.34;;;;
2022/01/05 02:00:58;;;;;;;1.15;1;;;;;;;3.47;91.49512;93803.34;;;;
2022/01/05 02:01:59;;;;;;;1.15;1;;;;;;;3.47;91.49512;93803.34;;;;
2022/01/05 02:02:59;;;;;;;1.15;1;;;;;;;3.47;91.49512;93803.34;;;;
2022/01/05 02:04:00;;;;;;;1.15;1;;;;;;;3.47;91.49512;93803.34;;;;
2022/01/05 02:05:01;;;;;;;1.15;1;;;;;;;3.47;91.49512;93803.34;;;;
2022/01/05 02:06:02;;;;;;;1.7;1.1;;;;;;;3.3;91.93848;93795.68;;;;
2022/01/05 02:07:03;;;;;;;1.7;1.1;;;;;;;3.3;91.93848;93795.68;;;;
2022/01/05 02:08:04;;;;;;;1.7;1.1;;;;;;;3.3;91.93848;93795.68;;;;
2022/01/05 02:09:04;;;;;;;1.7;1.1;;;;;;;3.3;91.93848;93795.68;;;;
2022/01/05 02:10:05;;;;;;;1.7;1.1;;;;;;;3.3;91.93848;93795.68;;;;
2022/01/05 02:11:08;;;;;;;1.7;1.1;;;;;;;3.3;91.93848;93795.68;;;;
2022/01/05 02:12:10;;;;;;;1.7;1.1;;;;;;;3.3;91.93848;93795.68;;;;
2022/01/05 02:13:11;;;;;;;1.7;1.1;;;;;;;3.3;91.93848;93795.68;;;;
2022/01/05 02:14:11;;;;;;;1.7;1.1;;;;;;;3.3;91.93848;93795.68;;;;
2022/01/05 02:15:12;;;;;;;1.7;1.1;;;;;;;3.3;91.93848;93795.68;;;;
2022/01/05 02:16:13;;;;;;;0.9;0.9;;;;;;;3.17;92.90625;93804.28;;;;
2022/01/05 02:17:23;;;;;;;0.9;0.9;;;;;;;3.17;92.90625;93804.28;;;;
2022/01/05 02:19:29;;;;;;;0.9;0.9;;;;;;;3.17;92.90625;93804.28;;;;
2022/01/05 02:20:29;;;;;;;0.9;0.9;;;;;;;3.17;92.90625;93804.28;;;;
2022/01/05 02:21:31;;;;;;;0.9;0.9;;;;;;;3.17;92.90625;93804.28;;;;
2022/01/05 02:22:34;;;;;;;0.9;0.9;;;;;;;3.17;92.90625;93804.28;;;;
2022/01/05 02:23:34;;;;;;;0.9;0.9;;;;;;;3.17;92.90625;93804.28;;;;
2022/01/05 02:24:36;;;;;;;0.9;0.9;;;;;;;3.17;92.90625;93804.28;;;;
2022/01/05 02:25:36;;;;;;;0.9;0.9;;;;;;;3.17;92.90625;93804.28;;;;
2022/01/05 02:26:37;;;;;;;1.1;0.8;;;;;;;3.11;93.75098;93806.92;;;;
2022/01/05 02:27:38;;;;;;;1.1;0.8;;;;;;;3.11;93.75098;93806.92;;;;
2022/01/05 02:28:39;;;;;;;1.1;0.8;;;;;;;3.11;93.75098;93806.92;;;;
2022/01/05 02:29:41;;;;;;;1.1;0.8;;;;;;;3.11;93.75098;93806.92;;;;
2022/01/05 02:30:42;;;;;;;1.1;0.8;;;;;;;3.11;93.75098;93806.92;;;;
2022/01/05 02:31:43;;;;;;;1.1;0.8;;;;;;;3.11;93.75098;93806.92;;;;
2022/01/05 02:32:44;;;;;;;1.1;0.8;;;;;;;3.11;93.75098;93806.92;;;;
2022/01/05 02:33:44;;;;;;;1.1;0.8;;;;;;;3.11;93.75098;93806.92;;;;
2022/01/05 02:34:45;;;;;;;1.1;0.8;;;;;;;3.11;93.75098;93806.92;;;;
2022/01/05 02:35:46;;;;;;;1.1;0.8;;;;;;;3.11;93.75098;93806.92;;;;
2022/01/05 02:36:47;;;;;;;1.1;0.8;;;;;;;3.11;93.75098;93806.92;;;;
2022/01/05 02:37:47;;;;;;;1;0.9;;;;;;;3.04;94.375;93795.54;;;;
2022/01/05 02:38:50;;;;;;;1;0.9;;;;;;;3.04;94.375;93795.54;;;;
2022/01/05 02:39:52;;;;;;;1;0.9;;;;;;;3.04;94.375;93795.54;;;;
2022/01/05 02:40:53;;;;;;;1;0.9;;;;;;;3.04;94.375;93795.54;;;;
2022/01/05 02:41:53;;;;;;;1;0.9;;;;;;;3.04;94.375;93795.54;;;;
2022/01/05 02:42:54;;;;;;;1;0.9;;;;;;;3.04;94.375;93795.54;;;;
2022/01/05 02:43:57;;;;;;;1;0.9;;;;;;;3.04;94.375;93795.54;;;;
2022/01/05 02:44:58;;;;;;;1;0.9;;;;;;;3.04;94.375;93795.54;;;;
2022/01/05 02:45:58;;;;;;;1;0.9;;;;;;;3.04;94.375;93795.54;;;;
2022/01/05 02:47:00;;;;;;;1;0.9;;;;;;;3.04;94.375;93795.54;;;;
2022/01/05 02:48:01;;;;;;;0.7;0.7;;;;;;;3.11;95.16211;93807.87;;;;
2022/01/05 02:49:04;;;;;;;0.7;0.7;;;;;;;3.11;95.16211;93807.87;;;;
2022/01/05 02:50:05;;;;;;;0.7;0.7;;;;;;;3.11;95.16211;93807.87;;;;
2022/01/05 02:51:09;;;;;;;0.7;0.7;;;;;;;3.11;95.16211;93807.87;;;;
2022/01/05 02:52:10;;;;;;;0.7;0.7;;;;;;;3.11;95.16211;93807.87;;;;
2022/01/05 02:53:11;;;;;;;0.7;0.7;;;;;;;3.11;95.16211;93807.87;;;;
2022/01/05 02:54:11;;;;;;;0.7;0.7;;;;;;;3.11;95.16211;93807.87;;;;
2022/01/05 02:55:12;;;;;;;0.7;0.7;;;;;;;3.11;95.16211;93807.87;;;;
2022/01/05 02:56:12;;;;;;;0.7;0.7;;;;;;;3.11;95.16211;93807.87;;;;
2022/01/05 02:57:13;;;;;;;0.7;0.7;;;;;;;3.11;95.16211;93807.87;;;;
2022/01/05 02:58:13;;;;;;;0.7;0.7;;;;;;;3.11;95.16211;93807.87;;;;
2022/01/05 02:59:14;;;;;;;0.8;0.8;;;;;;;3.16;95.49707;93804.83;;;;
2022/01/05 03:00:15;;;;;;;0.8;0.8;;;;;;;3.16;95.49707;93804.83;;;;
2022/01/05 03:01:16;;;;;;;0.8;0.8;;;;;;;3.16;95.49707;93804.83;;;;
2022/01/05 03:02:16;;;;;;;0.8;0.8;;;;;;;3.16;95.49707;93804.83;;;;
2022/01/05 03:03:17;;;;;;;0.8;0.8;;;;;;;3.16;95.49707;93804.83;;;;
2022/01/05 03:04:17;;;;;;;0.8;0.8;;;;;;;3.16;95.49707;93804.83;;;;
2022/01/05 03:05:19;;;;;;;0.8;0.8;;;;;;;3.16;95.49707;93804.83;;;;
2022/01/05 03:06:20;;;;;;;0.8;0.8;;;;;;;3.16;95.49707;93804.83;;;;
2022/01/05 03:07:20;;;;;;;0.8;0.8;;;;;;;3.16;95.49707;93804.83;;;;
2022/01/05 03:08:21;;;;;;;0.8;0.8;;;;;;;3.16;95.49707;93804.83;;;;
2022/01/05 03:09:21;;;;;;;0.8;0.8;;;;;;;3.2;95.7793;93795.85;;;;
2022/01/05 03:10:22;;;;;;;0.8;0.8;;;;;;;3.2;95.7793;93795.85;;;;
2022/01/05 03:11:22;;;;;;;0.8;0.8;;;;;;;3.2;95.7793;93795.85;;;;
2022/01/05 03:12:23;;;;;;;0.8;0.8;;;;;;;3.2;95.7793;93795.85;;;;
2022/01/05 03:13:23;;;;;;;0.8;0.8;;;;;;;3.2;95.7793;93795.85;;;;
2022/01/05 03:14:24;;;;;;;0.8;0.8;;;;;;;3.2;95.7793;93795.85;;;;
2022/01/05 03:15:24;;;;;;;0.8;0.8;;;;;;;3.2;95.7793;93795.85;;;;
2022/01/05 03:16:25;;;;;;;0.8;0.8;;;;;;;3.2;95.7793;93795.85;;;;
2022/01/05 03:17:26;;;;;;;0.8;0.8;;;;;;;3.2;95.7793;93795.85;;;;
2022/01/05 03:18:26;;;;;;;0.8;0.8;;;;;;;3.2;95.7793;93795.85;;;;
2022/01/05 03:19:27;;;;;;;0.8;0.8;;;;;;;3.2;95.7793;93795.85;;;;
2022/01/05 03:20:29;;;;;;;1;0.95;;;;;;;3.18;96.11719;93816.6;;;;
2022/01/05 03:21:30;;;;;;;1;0.95;;;;;;;3.18;96.11719;93816.6;;;;
2022/01/05 03:22:31;;;;;;;1;0.95;;;;;;;3.18;96.11719;93816.6;;;;
2022/01/05 03:23:31;;;;;;;1;0.95;;;;;;;3.18;96.11719;93816.6;;;;
2022/01/05 03:24:32;;;;;;;1;0.95;;;;;;;3.18;96.11719;93816.6;;;;
2022/01/05 03:25:32;;;;;;;1;0.95;;;;;;;3.18;96.11719;93816.6;;;;
2022/01/05 03:26:33;;;;;;;1;0.95;;;;;;;3.18;96.11719;93816.6;;;;
2022/01/05 03:27:34;;;;;;;1;0.95;;;;;;;3.18;96.11719;93816.6;;;;
2022/01/05 03:28:34;;;;;;;1;0.95;;;;;;;3.18;96.11719;93816.6;;;;
2022/01/05 03:29:35;;;;;;;1;0.95;;;;;;;3.18;96.11719;93816.6;;;;
2022/01/05 03:30:36;;;;;;;1.2;1.1;;;;;;;3.2;97.0332;93816.24;;;;
2022/01/05 03:31:36;;;;;;;1.2;1.1;;;;;;;3.2;97.0332;93816.24;;;;
2022/01/05 03:32:48;;;;;;;1.2;1.1;;;;;;;3.2;97.0332;93816.24;;;;
2022/01/05 03:33:49;;;;;;;1.2;1.1;;;;;;;3.2;97.0332;93816.24;;;;
2022/01/05 03:34:51;;;;;;;1.2;1.1;;;;;;;3.2;97.0332;93816.24;;;;
2022/01/05 03:35:51;;;;;;;1.2;1.1;;;;;;;3.2;97.0332;93816.24;;;;
2022/01/05 03:36:52;;;;;;;1.2;1.1;;;;;;;3.2;97.0332;93816.24;;;;
2022/01/05 03:37:52;;;;;;;1.2;1.1;;;;;;;3.2;97.0332;93816.24;;;;
2022/01/05 03:38:53;;;;;;;1.2;1.1;;;;;;;3.2;97.0332;93816.24;;;;
2022/01/05 03:39:53;;;;;;;1.2;1.1;;;;;;;3.2;97.0332;93816.24;;;;
2022/01/05 03:40:54;;;;;;;1.2;1.1;;;;;;;3.2;97.0332;93816.24;;;;
2022/01/05 03:41:55;;;;;;;0.65;0.65;;;;;;;3.28;97.875;93815.52;;;;
2022/01/05 03:42:55;;;;;;;0.65;0.65;;;;;;;3.28;97.875;93815.52;;;;
2022/01/05 03:43:57;;;;;;;0.65;0.65;;;;;;;3.28;97.875;93815.52;;;;
2022/01/05 03:44:58;;;;;;;0.65;0.65;;;;;;;3.28;97.875;93815.52;;;;
2022/01/05 03:45:58;;;;;;;0.65;0.65;;;;;;;3.28;97.875;93815.52;;;;
2022/01/05 03:46:59;;;;;;;0.65;0.65;;;;;;;3.28;97.875;93815.52;;;;
2022/01/05 03:47:59;;;;;;;0.65;0.65;;;;;;;3.28;97.875;93815.52;;;;
2022/01/05 03:49:01;;;;;;;0.65;0.65;;;;;;;3.28;97.875;93815.52;;;;
2022/01/05 03:50:01;;;;;;;0.65;0.65;;;;;;;3.28;97.875;93815.52;;;;
2022/01/05 03:51:03;;;;;;;0.65;0.65;;;;;;;3.28;97.875;93815.52;;;;
2022/01/05 03:52:04;;;;;;;0.65;0.65;;;;;;;3.33;98.33496;93816.56;;;;
2022/01/05 03:53:05;;;;;;;0.65;0.65;;;;;;;3.33;98.33496;93816.56;;;;
2022/01/05 03:54:07;;;;;;;0.65;0.65;;;;;;;3.33;98.33496;93816.56;;;;
2022/01/05 03:55:07;;;;;;;0.65;0.65;;;;;;;3.33;98.33496;93816.56;;;;
2022/01/05 03:56:09;;;;;;;0.65;0.65;;;;;;;3.33;98.33496;93816.56;;;;
2022/01/05 03:57:09;;;;;;;0.65;0.65;;;;;;;3.33;98.33496;93816.56;;;;
2022/01/05 03:58:09;;;;;;;0.65;0.65;;;;;;;3.33;98.33496;93816.56;;;;
2022/01/05 03:59:10;;;;;;;0.65;0.65;;;;;;;3.33;98.33496;93816.56;;;;
2022/01/05 04:00:11;;;;;;;0.65;0.65;;;;;;;3.33;98.33496;93816.56;;;;
2022/01/05 04:01:12;;;;;;;0.65;0.65;;;;;;;3.33;98.33496;93816.56;;;;
2022/01/05 04:02:13;;;;;;;0.65;0.65;;;;;;;3.33;98.33496;93816.56;;;;
2022/01/05 04:03:13;;;;;;;0.8;0.8;;;;;;;3.39;99.1748;93828.49;;;;
2022/01/05 04:04:15;;;;;;;0.8;0.8;;;;;;;3.39;99.1748;93828.49;;;;
2022/01/05 04:05:15;;;;;;;0.8;0.8;;;;;;;3.39;99.1748;93828.49;;;;
2022/01/05 04:06:16;;;;;;;0.8;0.8;;;;;;;3.39;99.1748;93828.49;;;;
2022/01/05 04:07:16;;;;;;;0.8;0.8;;;;;;;3.39;99.1748;93828.49;;;;
2022/01/05 04:08:17;;;;;;;0.8;0.8;;;;;;;3.39;99.1748;93828.49;;;;
2022/01/05 04:09:18;;;;;;;0.8;0.8;;;;;;;3.39;99.1748;93828.49;;;;
2022/01/05 04:10:19;;;;;;;0.8;0.8;;;;;;;3.39;99.1748;93828.49;;;;
2022/01/05 04:11:19;;;;;;;0.8;0.8;;;;;;;3.39;99.1748;93828.49;;;;
2022/01/05 04:12:20;;;;;;;0.8;0.8;;;;;;;3.39;99.1748;93828.49;;;;
2022/01/05 04:13:20;;;;;;;0.6;0.6;;;;;;;3.38;99.2959;93826.05;;;;
2022/01/05 04:14:21;;;;;;;0.6;0.6;;;;;;;3.38;99.2959;93826.05;;;;
2022/01/05 04:15:21;;;;;;;0.6;0.6;;;;;;;3.38;99.2959;93826.05;;;;
2022/01/05 04:16:22;;;;;;;0.6;0.6;;;;;;;3.38;99.2959;93826.05;;;;
2022/01/05 04:17:23;;;;;;;0.6;0.6;;;;;;;3.38;99.2959;93826.05;;;;
2022/01/05 04:18:23;;;;;;;0.6;0.6;;;;;;;3.38;99.2959;93826.05;;;;
2022/01/05 04:19:24;;;;;;;0.6;0.6;;;;;;;3.38;99.2959;93826.05;;;;
2022/01/05 04:20:24;;;;;;;0.6;0.6;;;;;;;3.38;99.2959;93826.05;;;;
2022/01/05 04:21:25;;;;;;;0.6;0.6;;;;;;;3.38;99.2959;93826.05;;;;
2022/01/05 04:22:25;;;;;;;0.6;0.6;;;;;;;3.38;99.2959;93826.05;;;;
2022/01/05 04:23:26;;;;;;;0.6;0.6;;;;;;;3.38;99.2959;93826.05;;;;
2022/01/05 04:24:26;;;;;;;0.5;0.5;;;;;;;3.32;99.72168;93831.87;;;;
2022/01/05 04:25:27;;;;;;;0.5;0.5;;;;;;;3.32;99.72168;93831.87;;;;
2022/01/05 04:26:27;;;;;;;0.5;0.5;;;;;;;3.32;99.72168;93831.87;;;;
2022/01/05 04:27:28;;;;;;;0.5;0.5;;;;;;;3.32;99.72168;93831.87;;;;
2022/01/05 04:28:28;;;;;;;0.5;0.5;;;;;;;3.32;99.72168;93831.87;;;;
2022/01/05 04:29:29;;;;;;;0.5;0.5;;;;;;;3.32;99.72168;93831.87;;;;
2022/01/05 04:30:29;;;;;;;0.5;0.5;;;;;;;3.32;99.72168;93831.87;;;;
2022/01/05 04:31:30;;;;;;;0.5;0.5;;;;;;;3.32;99.72168;93831.87;;;;
2022/01/05 04:32:30;;;;;;;0.5;0.5;;;;;;;3.32;99.72168;93831.87;;;;
2022/01/05 04:33:31;;;;;;;0.5;0.5;;;;;;;3.32;99.72168;93831.87;;;;
2022/01/05 04:34:31;;;;;;;0.5;0.5;;;;;;;3.32;99.72168;93831.87;;;;
2022/01/05 04:35:32;;;;;;;0.6;0.6;;;;;;;3.24;100;93822.33;;;;
2022/01/05 04:36:33;;;;;;;0.6;0.6;;;;;;;3.24;100;93822.33;;;;
2022/01/05 04:37:33;;;;;;;0.6;0.6;;;;;;;3.24;100;93822.33;;;;
2022/01/05 04:38:34;;;;;;;0.6;0.6;;;;;;;3.24;100;93822.33;;;;
2022/01/05 04:39:34;;;;;;;0.6;0.6;;;;;;;3.24;100;93822.33;;;;
2022/01/05 04:40:36;;;;;;;0.6;0.6;;;;;;;3.24;100;93822.33;;;;
2022/01/05 04:41:36;;;;;;;0.6;0.6;;;;;;;3.24;100;93822.33;;;;
2022/01/05 04:42:37;;;;;;;0.6;0.6;;;;;;;3.24;100;93822.33;;;;
2022/01/05 04:43:37;;;;;;;0.6;0.6;;;;;;;3.24;100;93822.33;;;;
2022/01/05 04:44:38;;;;;;;0.6;0.6;;;;;;;3.24;100;93822.33;;;;
2022/01/05 04:45:38;;;;;;;0.45;0.45;;;;;;;3.14;100;93817.56;;;;
2022/01/05 04:46:39;;;;;;;0.45;0.45;;;;;;;3.14;100;93817.56;;;;
2022/01/05 04:47:40;;;;;;;0.45;0.45;;;;;;;3.14;100;93817.56;;;;
2022/01/05 04:48:42;;;;;;;0.45;0.45;;;;;;;3.14;100;93817.56;;;;
2022/01/05 04:49:42;;;;;;;0.45;0.45;;;;;;;3.14;100;93817.56;;;;
2022/01/05 04:50:43;;;;;;;0.45;0.45;;;;;;;3.14;100;93817.56;;;;
2022/01/05 04:51:43;;;;;;;0.45;0.45;;;;;;;3.14;100;93817.56;;;;
2022/01/05 04:52:44;;;;;;;0.45;0.45;;;;;;;3.14;100;93817.56;;;;
2022/01/05 04:53:44;;;;;;;0.45;0.45;;;;;;;3.14;100;93817.56;;;;
2022/01/05 04:54:46;;;;;;;0.45;0.45;;;;;;;3.14;100;93817.56;;;;
2022/01/05 04:55:47;;;;;;;0.45;0.45;;;;;;;3.14;100;93817.56;;;;
2022/01/05 04:56:47;;;;;;;0.6;0.6;;;;;;;3.03;100;93802.84;;;;
2022/01/05 04:57:48;;;;;;;0.6;0.6;;;;;;;3.03;100;93802.84;;;;
2022/01/05 04:58:48;;;;;;;0.6;0.6;;;;;;;3.03;100;93802.84;;;;
2022/01/05 04:59:49;;;;;;;0.6;0.6;;;;;;;3.03;100;93802.84;;;;
2022/01/05 05:00:49;;;;;;;0.6;0.6;;;;;;;3.03;100;93802.84;;;;
2022/01/05 05:01:50;;;;;;;0.6;0.6;;;;;;;3.03;100;93802.84;;;;
2022/01/05 05:02:50;;;;;;;0.6;0.6;;;;;;;3.03;100;93802.84;;;;
2022/01/05 05:03:51;;;;;;;0.6;0.6;;;;;;;3.03;100;93802.84;;;;
2022/01/05 05:04:52;;;;;;;0.6;0.6;;;;;;;3.03;100;93802.84;;;;
2022/01/05 05:05:52;;;;;;;0.6;0.6;;;;;;;3.03;100;93802.84;;;;
2022/01/05 05:06:53;;;;;;;0.7;0.7;;;;;;;2.98;100;93808.87;;;;
2022/01/05 05:07:53;;;;;;;0.7;0.7;;;;;;;2.98;100;93808.87;;;;
2022/01/05 05:08:53;;;;;;;0.7;0.7;;;;;;;2.98;100;93808.87;;;;
2022/01/05 05:09:54;;;;;;;0.7;0.7;;;;;;;2.98;100;93808.87;;;;
2022/01/05 05:10:54;;;;;;;0.7;0.7;;;;;;;2.98;100;93808.87;;;;
2022/01/05 05:11:55;;;;;;;0.7;0.7;;;;;;;2.98;100;93808.87;;;;
2022/01/05 05:12:55;;;;;;;0.7;0.7;;;;;;;2.98;100;93808.87;;;;
2022/01/05 05:13:56;;;;;;;0.7;0.7;;;;;;;2.98;100;93808.87;;;;
2022/01/05 05:14:57;;;;;;;0.7;0.7;;;;;;;2.98;100;93808.87;;;;
2022/01/05 05:15:57;;;;;;;0.7;0.7;;;;;;;2.98;100;93808.87;;;;
2022/01/05 05:16:58;;;;;;;0.7;0.7;;;;;;;2.98;100;93808.87;;;;
2022/01/05 05:17:58;;;;;;;0.7;0.7;;;;;;;2.89;100;93803.66;;;;
2022/01/05 05:18:59;;;;;;;0.7;0.7;;;;;;;2.89;100;93803.66;;;;
2022/01/05 05:19:59;;;;;;;0.7;0.7;;;;;;;2.89;100;93803.66;;;;
2022/01/05 05:21:01;;;;;;;0.7;0.7;;;;;;;2.89;100;93803.66;;;;
2022/01/05 05:22:01;;;;;;;0.7;0.7;;;;;;;2.89;100;93803.66;;;;
2022/01/05 05:23:02;;;;;;;0.7;0.7;;;;;;;2.89;100;93803.66;;;;
2022/01/05 05:24:03;;;;;;;0.7;0.7;;;;;;;2.89;100;93803.66;;;;
2022/01/05 05:25:05;;;;;;;0.7;0.7;;;;;;;2.89;100;93803.66;;;;
2022/01/05 05:26:07;;;;;;;0.7;0.7;;;;;;;2.89;100;93803.66;;;;
2022/01/05 05:27:07;;;;;;;0.7;0.7;;;;;;;2.89;100;93803.66;;;;
2022/01/05 05:28:08;;;;;;;0.6;0.6;;;;;;;2.85;100;93815.8;;;;
2022/01/05 05:29:09;;;;;;;0.6;0.6;;;;;;;2.85;100;93815.8;;;;
2022/01/05 05:30:09;;;;;;;0.6;0.6;;;;;;;2.85;100;93815.8;;;;
2022/01/05 05:31:11;;;;;;;0.6;0.6;;;;;;;2.85;100;93815.8;;;;
2022/01/05 05:32:11;;;;;;;0.6;0.6;;;;;;;2.85;100;93815.8;;;;
2022/01/05 05:33:12;;;;;;;0.6;0.6;;;;;;;2.85;100;93815.8;;;;
2022/01/05 05:34:12;;;;;;;0.6;0.6;;;;;;;2.85;100;93815.8;;;;
2022/01/05 05:35:14;;;;;;;0.6;0.6;;;;;;;2.85;100;93815.8;;;;
2022/01/05 05:36:15;;;;;;;0.6;0.6;;;;;;;2.85;100;93815.8;;;;
2022/01/05 05:37:16;;;;;;;0.6;0.6;;;;;;;2.85;100;93815.8;;;;
2022/01/05 05:38:17;;;;;;;0.6;0.6;;;;;;;2.85;100;93815.8;;;;
2022/01/05 05:39:17;;;;;;;0.6;0.6;;;;;;;2.88;100;93814.04;;;;
2022/01/05 05:40:18;;;;;;;0.6;0.6;;;;;;;2.88;100;93814.04;;;;
2022/01/05 05:41:18;;;;;;;0.6;0.6;;;;;;;2.88;100;93814.04;;;;
2022/01/05 05:42:19;;;;;;;0.6;0.6;;;;;;;2.88;100;93814.04;;;;
2022/01/05 05:43:19;;;;;;;0.6;0.6;;;;;;;2.88;100;93814.04;;;;
2022/01/05 05:44:20;;;;;;;0.6;0.6;;;;;;;2.88;100;93814.04;;;;
2022/01/05 05:45:21;;;;;;;0.6;0.6;;;;;;;2.88;100;93814.04;;;;
2022/01/05 05:46:21;;;;;;;0.6;0.6;;;;;;;2.88;100;93814.04;;;;
2022/01/05 05:47:22;;;;;;;0.6;0.6;;;;;;;2.88;100;93814.04;;;;
2022/01/05 05:48:22;;;;;;;0.6;0.6;;;;;;;2.88;100;93814.04;;;;
2022/01/05 05:49:23;;;;;;;0.6;0.6;;;;;;;2.88;100;93814.04;;;;
2022/01/05 05:50:23;;;;;;;0.6;0.6;;;;;;;2.88;100;93814.04;;;;
2022/01/05 05:51:24;;;;;;;0.6;0.6;;;;;;;2.88;100;93814.04;;;;
2022/01/05 05:52:24;;;;;;;0.6;0.6;;;;;;;2.88;100;93814.04;;;;
2022/01/05 05:53:25;;;;;;;0.6;0.6;;;;;;;2.88;100;93814.04;;;;
2022/01/05 05:54:26;;;;;;;0.6;0.6;;;;;;;2.88;100;93814.04;;;;
2022/01/05 05:55:26;;;;;;;0.6;0.6;;;;;;;2.88;100;93814.04;;;;
2022/01/05 05:56:27;;;;;;;0.6;0.6;;;;;;;2.88;100;93814.04;;;;
2022/01/05 05:57:27;;;;;;;0.6;0.6;;;;;;;2.88;100;93814.04;;;;
2022/01/05 05:58:28;;;;;;;0.6;0.6;;;;;;;2.88;100;93814.04;;;;
2022/01/05 05:59:28;;;;;;;0.6;0.6;;;;;;;2.88;100;93814.04;;;;
2022/01/05 06:00:29;;;;;;;0.4;0.4;;;;;;;3.08;100;93831.8;;;;
2022/01/05 06:01:30;;;;;;;0.4;0.4;;;;;;;3.08;100;93831.8;;;;
2022/01/05 06:02:30;;;;;;;0.4;0.4;;;;;;;3.08;100;93831.8;;;;
2022/01/05 06:03:31;;;;;;;0.4;0.4;;;;;;;3.08;100;93831.8;;;;
2022/01/05 06:04:32;;;;;;;0.4;0.4;;;;;;;3.08;100;93831.8;;;;
2022/01/05 06:05:32;;;;;;;0.4;0.4;;;;;;;3.08;100;93831.8;;;;
2022/01/05 06:06:34;;;;;;;0.4;0.4;;;;;;;3.08;100;93831.8;;;;
2022/01/05 06:07:34;;;;;;;0.4;0.4;;;;;;;3.08;100;93831.8;;;;
2022/01/05 06:08:35;;;;;;;0.4;0.4;;;;;;;3.08;100;93831.8;;;;